Time;durP1;ratioP1;P1;durP2;ratioP2;P2;SDS_P1;SDS_P2;PMS_P1;PMS_P2;Temp;Humidity;BMP_temperature;BMP_pressure;BME280_temperature;BME280_humidity;BME280_pressure;Samples;Min_cycle;Max_cycle;Signal;HPM_P1;HPM_P2
2021/12/20 00:00:15;;;;;;;24.77;4.97;;;7.70;91.40;;;;;;5017098;28;37045;-62
2021/12/20 00:02:45;;;;;;;34.55;6.43;;;7.70;91.40;;;;;;5016064;28;36455;-62
2021/12/20 00:05:14;;;;;;;24.90;4.53;;;7.70;91.30;;;;;;5017128;28;37535;-62
2021/12/20 00:07:42;;;;;;;28.35;5.13;;;7.70;91.30;;;;;;5017097;28;36726;-62
2021/12/20 00:10:10;;;;;;;23.00;3.20;;;7.70;91.20;;;;;;5016890;28;39289;-62
2021/12/20 00:12:38;;;;;;;19.85;3.42;;;7.70;91.30;;;;;;5015476;28;36439;-62
2021/12/20 00:15:06;;;;;;;26.40;4.65;;;7.60;91.20;;;;;;5016994;28;38068;-62
2021/12/20 00:17:33;;;;;;;28.65;4.38;;;7.60;91.20;;;;;;5015774;28;38709;-62
2021/12/20 00:20:01;;;;;;;19.23;3.72;;;7.60;91.20;;;;;;5016538;28;35915;-62
2021/12/20 00:22:28;;;;;;;19.00;3.70;;;7.50;91.10;;;;;;5016497;28;36799;-61
2021/12/20 00:24:55;;;;;;;26.33;4.22;;;7.50;91.10;;;;;;5017045;28;37470;-62
2021/12/20 00:27:24;;;;;;;26.45;4.00;;;7.50;91.10;;;;;;5015550;28;38744;-61
2021/12/20 00:29:52;;;;;;;20.45;4.07;;;7.40;91.00;;;;;;5016200;28;37479;-62
2021/12/20 00:32:19;;;;;;;27.50;4.03;;;7.40;91.10;;;;;;5016520;28;36391;-62
2021/12/20 00:34:47;;;;;;;18.48;3.60;;;7.40;91.10;;;;;;5016132;28;37531;-61
2021/12/20 00:40:22;;;;;;;26.52;3.70;;;7.40;91.10;;;;;;5017441;28;39289;-62
2021/12/20 00:42:52;;;;;;;19.20;3.65;;;7.50;91.10;;;;;;5017073;28;36398;-62
2021/12/20 00:45:21;;;;;;;25.90;4.72;;;7.50;91.10;;;;;;5015531;28;37979;-62
2021/12/20 00:47:49;;;;;;;18.52;2.83;;;7.50;91.00;;;;;;5016497;28;37707;-62
2021/12/20 00:50:19;;;;;;;19.10;3.35;;;7.50;91.00;;;;;;5015643;28;36105;-62
2021/12/20 00:52:49;;;;;;;22.38;3.13;;;7.50;91.00;;;;;;5015959;28;36426;-62
2021/12/20 00:55:18;;;;;;;27.25;3.65;;;7.50;91.00;;;;;;5015446;28;39242;-62
2021/12/20 00:57:46;;;;;;;12.00;3.00;;;7.50;91.10;;;;;;5016971;28;38635;-62
2021/12/20 01:00:17;;;;;;;14.20;3.25;;;7.50;91.10;;;;;;5015186;28;38768;-62
2021/12/20 01:02:45;;;;;;;18.08;2.90;;;7.50;91.10;;;;;;5015487;28;36940;-61
2021/12/20 01:05:12;;;;;;;17.17;2.85;;;7.50;91.00;;;;;;5015533;28;37197;-61
2021/12/20 01:07:40;;;;;;;14.35;2.60;;;7.40;90.80;;;;;;5015614;28;37728;-62
2021/12/20 01:10:09;;;;;;;15.05;2.92;;;7.40;90.60;;;;;;5016436;28;35927;-61
2021/12/20 01:12:44;;;;;;;24.10;4.32;;;7.40;90.60;;;;;;5014983;28;36290;-62
2021/12/20 01:15:16;;;;;;;29.25;3.70;;;7.30;90.40;;;;;;5014847;28;37553;-62
2021/12/20 01:17:43;;;;;;;11.13;2.92;;;7.30;90.50;;;;;;5016554;28;38121;-62
2021/12/20 01:20:12;;;;;;;15.50;2.63;;;7.30;90.50;;;;;;5015330;28;37151;-61
2021/12/20 01:22:41;;;;;;;25.75;4.25;;;7.20;90.50;;;;;;5015061;28;36618;-61
2021/12/20 01:25:09;;;;;;;15.38;3.03;;;7.20;90.60;;;;;;5014955;28;40280;-62
2021/12/20 01:27:36;;;;;;;14.02;2.72;;;7.20;90.70;;;;;;5015404;28;37578;-62
2021/12/20 01:30:05;;;;;;;16.90;2.40;;;7.10;90.70;;;;;;5015625;28;38925;-62
2021/12/20 01:32:34;;;;;;;13.90;2.13;;;7.20;90.70;;;;;;5015257;28;36615;-61
2021/12/20 01:35:01;;;;;;;11.23;2.45;;;7.20;91.00;;;;;;5014429;28;38370;-62
2021/12/20 01:37:28;;;;;;;16.83;2.30;;;7.20;90.80;;;;;;5015164;28;37395;-62
2021/12/20 01:39:58;;;;;;;12.80;1.95;;;7.10;90.70;;;;;;5015449;28;37350;-62
2021/12/20 01:42:28;;;;;;;14.82;2.35;;;7.10;90.70;;;;;;5015857;28;37416;-62
2021/12/20 01:44:57;;;;;;;10.95;2.10;;;7.10;90.80;;;;;;5014567;28;38308;-62
2021/12/20 01:47:28;;;;;;;12.70;2.65;;;7.10;90.80;;;;;;5014899;28;37603;-61
2021/12/20 01:50:02;;;;;;;14.70;2.42;;;7.20;90.90;;;;;;5015714;28;37383;-62
2021/12/20 01:52:39;;;;;;;16.45;2.58;;;7.10;91.00;;;;;;5015991;28;35247;-61
2021/12/20 01:55:07;;;;;;;11.40;2.05;;;7.20;91.20;;;;;;5014458;28;37223;-61
2021/12/20 01:57:35;;;;;;;18.70;2.63;;;7.10;91.20;;;;;;5016134;28;37601;-61
2021/12/20 02:00:04;;;;;;;15.07;2.80;;;7.10;91.30;;;;;;5014793;28;37576;-61
2021/12/20 02:02:31;;;;;;;16.42;2.45;;;7.10;91.40;;;;;;5014799;28;37416;-61
2021/12/20 02:05:10;;;;;;;13.02;2.60;;;7.10;91.50;;;;;;5014314;28;37466;-61
2021/12/20 02:07:50;;;;;;;10.40;2.35;;;7.10;91.50;;;;;;5014404;28;38796;-62
2021/12/20 02:10:18;;;;;;;20.63;2.72;;;7.20;91.60;;;;;;5012896;28;37376;-62
2021/12/20 02:12:45;;;;;;;11.25;2.13;;;7.20;91.60;;;;;;5015163;28;38364;-62
2021/12/20 02:15:12;;;;;;;13.32;2.30;;;7.20;91.60;;;;;;5013639;28;37449;-61
2021/12/20 02:17:40;;;;;;;12.93;2.38;;;7.20;91.60;;;;;;5015316;28;38370;-61
2021/12/20 02:20:10;;;;;;;20.25;2.95;;;7.20;91.60;;;;;;5015045;28;37413;-62
2021/12/20 02:22:38;;;;;;;11.10;2.17;;;7.20;91.60;;;;;;5015713;28;38309;-62
2021/12/20 02:25:07;;;;;;;16.90;2.10;;;7.20;91.60;;;;;;5014023;28;37079;-61
2021/12/20 02:27:34;;;;;;;14.48;2.45;;;7.20;91.70;;;;;;5015302;28;37992;-61
2021/12/20 02:30:08;;;;;;;12.00;2.53;;;7.20;91.70;;;;;;5014641;28;37439;-62
2021/12/20 02:38:35;;;;;;;;;;;7.10;91.60;;;;;;4957609;28;36920;-62
2021/12/20 02:41:06;;;;;;;15.13;2.33;;;7.10;91.50;;;;;;4956586;28;37790;-61
2021/12/20 02:43:38;;;;;;;17.70;2.83;;;7.10;91.70;;;;;;4982258;28;35936;-62
2021/12/20 02:46:10;;;;;;;14.20;2.45;;;7.10;91.70;;;;;;5014524;28;38402;-62
2021/12/20 02:48:38;;;;;;;11.52;2.03;;;7.10;91.80;;;;;;5014676;28;40033;-61
2021/12/20 02:51:06;;;;;;;14.57;2.67;;;7.10;91.70;;;;;;5014255;28;37828;-61
2021/12/20 02:53:34;;;;;;;13.15;2.10;;;7.10;91.60;;;;;;5014072;28;36894;-62
2021/12/20 02:56:01;;;;;;;14.85;1.90;;;7.10;91.60;;;;;;5014494;28;36091;-62
2021/12/20 02:58:28;;;;;;;10.55;2.05;;;7.10;91.60;;;;;;5014469;28;38046;-62
2021/12/20 03:00:55;;;;;;;18.98;2.75;;;7.10;91.50;;;;;;5012738;28;37463;-62
2021/12/20 03:03:24;;;;;;;12.23;2.38;;;7.00;91.50;;;;;;5013533;28;35988;-62
2021/12/20 03:05:52;;;;;;;15.80;2.63;;;7.00;91.40;;;;;;5014456;28;36149;-62
2021/12/20 03:08:23;;;;;;;8.57;1.90;;;7.10;91.40;;;;;;5014515;28;38517;-62
2021/12/20 03:10:51;;;;;;;15.10;2.47;;;7.10;91.30;;;;;;5014435;28;37331;-62
2021/12/20 03:13:22;;;;;;;13.88;1.77;;;7.10;91.40;;;;;;5012076;28;36658;-61
2021/12/20 03:15:49;;;;;;;11.63;2.20;;;7.00;91.40;;;;;;5014846;28;36374;-61
2021/12/20 03:18:17;;;;;;;16.63;2.53;;;7.00;91.30;;;;;;5015935;28;38055;-62
2021/12/20 03:20:44;;;;;;;12.25;1.77;;;7.00;91.10;;;;;;5017232;28;37800;-61
2021/12/20 03:23:11;;;;;;;10.88;2.13;;;7.00;91.20;;;;;;5016329;28;37997;-62
2021/12/20 03:25:40;;;;;;;13.77;2.42;;;7.00;91.30;;;;;;5017363;28;37592;-61
2021/12/20 03:28:07;;;;;;;13.07;2.50;;;7.10;91.10;;;;;;5016677;28;37907;-61
2021/12/20 03:30:35;;;;;;;13.32;2.13;;;7.00;91.10;;;;;;5017398;28;38076;-62
2021/12/20 03:33:02;;;;;;;12.48;2.10;;;7.00;91.10;;;;;;5017230;28;36488;-62
2021/12/20 03:35:29;;;;;;;10.45;1.83;;;7.00;91.20;;;;;;5018328;28;37418;-62
2021/12/20 03:37:57;;;;;;;11.88;1.80;;;7.10;91.00;;;;;;5017563;28;37288;-61
2021/12/20 03:40:25;;;;;;;11.30;2.28;;;7.00;90.90;;;;;;5015887;28;37633;-61
2021/12/20 03:42:54;;;;;;;17.48;2.53;;;6.90;91.00;;;;;;5017103;28;37869;-62
2021/12/20 03:45:21;;;;;;;12.63;1.98;;;6.90;91.20;;;;;;5017307;28;39602;-62
2021/12/20 03:47:48;;;;;;;10.15;1.92;;;6.90;91.00;;;;;;5017618;28;38038;-61
2021/12/20 03:50:16;;;;;;;10.75;1.90;;;6.90;91.20;;;;;;5016056;28;37195;-61
2021/12/20 03:52:43;;;;;;;14.23;2.83;;;6.90;91.30;;;;;;5016864;28;35807;-62
2021/12/20 03:55:13;;;;;;;18.60;2.53;;;6.80;91.20;;;;;;5017225;28;38031;-62
2021/12/20 03:57:40;;;;;;;14.40;2.22;;;6.90;91.30;;;;;;5017101;28;37121;-61
2021/12/20 04:00:13;;;;;;;9.57;1.75;;;6.80;91.20;;;;;;5015810;28;37196;-62
2021/12/20 04:02:43;;;;;;;11.30;1.75;;;6.80;91.20;;;;;;5015975;28;36993;-61
2021/12/20 04:05:11;;;;;;;11.23;2.00;;;6.90;91.30;;;;;;5016646;28;36228;-61
2021/12/20 04:07:39;;;;;;;7.50;2.08;;;6.80;91.40;;;;;;5017374;28;37580;-62
2021/12/20 04:10:07;;;;;;;11.32;1.63;;;6.80;91.50;;;;;;5017966;28;37123;-61
2021/12/20 04:12:35;;;;;;;12.40;2.00;;;6.80;91.50;;;;;;5015535;28;36133;-61
2021/12/20 04:15:02;;;;;;;11.52;2.05;;;6.80;91.40;;;;;;5017438;28;37393;-61
2021/12/20 04:17:31;;;;;;;12.70;2.20;;;6.80;91.20;;;;;;5016750;28;38994;-61
2021/12/20 04:19:59;;;;;;;12.68;2.45;;;6.80;91.20;;;;;;5016477;28;38115;-61
2021/12/20 04:22:26;;;;;;;15.15;1.58;;;6.80;91.30;;;;;;5016649;28;35202;-61
2021/12/20 04:24:53;;;;;;;11.52;1.92;;;6.80;91.40;;;;;;5015818;28;37595;-62
2021/12/20 04:27:21;;;;;;;13.85;2.10;;;6.80;91.30;;;;;;5017040;28;37800;-62
2021/12/20 04:29:49;;;;;;;13.95;2.35;;;6.90;91.20;;;;;;5016704;28;35865;-61
2021/12/20 04:32:16;;;;;;;11.07;2.03;;;6.90;91.20;;;;;;5016601;28;36204;-61
2021/12/20 04:34:45;;;;;;;9.40;2.25;;;6.80;90.80;;;;;;5017112;28;37541;-62
2021/12/20 04:37:13;;;;;;;14.30;2.22;;;6.80;90.60;;;;;;5016352;28;37655;-61
2021/12/20 04:39:40;;;;;;;12.35;2.42;;;6.80;90.10;;;;;;5015304;28;38162;-61
2021/12/20 04:42:09;;;;;;;10.93;1.73;;;6.80;90.10;;;;;;5015641;28;35188;-61
2021/12/20 04:44:36;;;;;;;9.43;2.10;;;6.80;90.20;;;;;;5015417;28;36115;-61
2021/12/20 04:47:04;;;;;;;7.07;1.50;;;6.80;90.10;;;;;;5016795;28;37703;-62
2021/12/20 04:49:31;;;;;;;7.90;1.55;;;6.70;90.10;;;;;;5015931;28;37330;-62
2021/12/20 04:52:00;;;;;;;10.25;1.75;;;6.70;90.10;;;;;;5015409;28;35088;-61
2021/12/20 04:54:27;;;;;;;10.88;1.80;;;6.70;90.10;;;;;;5016703;28;38223;-61
2021/12/20 04:56:55;;;;;;;9.30;1.83;;;6.70;90.30;;;;;;5016176;28;37713;-62
2021/12/20 04:59:22;;;;;;;10.23;1.67;;;6.60;90.40;;;;;;5014626;28;37461;-61
2021/12/20 05:01:50;;;;;;;10.63;1.70;;;6.60;90.40;;;;;;5014673;28;35150;-61
2021/12/20 05:04:17;;;;;;;9.18;1.88;;;6.50;90.30;;;;;;5015914;28;37710;-62
2021/12/20 05:06:45;;;;;;;8.23;1.55;;;6.40;90.40;;;;;;5016859;28;38510;-61
2021/12/20 05:09:14;;;;;;;11.02;2.40;;;6.30;90.40;;;;;;5016055;28;37317;-61
2021/12/20 05:11:47;;;;;;;12.55;2.17;;;6.30;90.30;;;;;;5014417;28;36451;-62
2021/12/20 05:14:14;;;;;;;;;;;6.30;90.30;;;;;;5016640;28;36387;-61
2021/12/20 05:16:42;;;;;;;11.35;1.60;;;6.20;89.90;;;;;;5015851;28;37642;-62
2021/12/20 05:19:09;;;;;;;14.95;2.40;;;6.20;90.40;;;;;;5016345;28;35976;-62
2021/12/20 05:21:36;;;;;;;11.15;2.08;;;6.10;90.70;;;;;;5016854;28;36577;-61
2021/12/20 05:24:04;;;;;;;10.13;1.80;;;6.10;90.40;;;;;;5014438;28;37524;-62
2021/12/20 05:26:33;;;;;;;12.38;2.25;;;6.00;90.30;;;;;;5016392;28;37493;-60
2021/12/20 05:29:06;;;;;;;15.18;1.80;;;6.00;90.30;;;;;;5014479;28;38842;-60
2021/12/20 05:31:34;;;;;;;11.95;1.60;;;6.00;90.40;;;;;;5015279;28;37024;-60
2021/12/20 05:34:01;;;;;;;12.27;1.70;;;6.00;90.30;;;;;;5015750;28;37593;-60
2021/12/20 05:36:29;;;;;;;9.43;1.45;;;6.00;90.50;;;;;;5014913;28;37710;-60
2021/12/20 05:38:56;;;;;;;11.80;2.22;;;6.00;90.20;;;;;;5015266;28;39930;-61
2021/12/20 05:41:23;;;;;;;13.18;2.13;;;6.00;90.10;;;;;;5014367;28;37833;-61
2021/12/20 05:43:52;;;;;;;12.18;3.40;;;5.90;90.10;;;;;;5014767;28;36272;-61
2021/12/20 05:46:19;;;;;;;11.68;1.65;;;5.80;90.10;;;;;;5015133;28;37483;-61
2021/12/20 05:48:47;;;;;;;11.88;1.80;;;5.80;90.10;;;;;;5015253;28;36731;-60
2021/12/20 05:51:14;;;;;;;8.43;1.52;;;5.70;90.20;;;;;;5014318;28;37776;-60
2021/12/20 05:53:42;;;;;;;13.27;2.17;;;5.70;90.30;;;;;;5015225;28;37719;-60
2021/12/20 05:56:09;;;;;;;8.75;1.90;;;5.60;90.50;;;;;;5014476;28;37612;-61
2021/12/20 05:58:36;;;;;;;10.18;1.83;;;5.60;90.50;;;;;;5015570;28;37521;-60
2021/12/20 06:01:05;;;;;;;7.70;1.50;;;5.60;90.50;;;;;;5014130;28;35100;-60
2021/12/20 06:03:33;;;;;;;9.30;1.48;;;5.60;90.40;;;;;;5012988;28;36429;-61
2021/12/20 06:06:00;;;;;;;7.25;1.45;;;5.50;90.40;;;;;;5015743;28;37670;-61
2021/12/20 06:08:28;;;;;;;13.25;2.00;;;5.50;90.40;;;;;;5015686;28;37421;-60
2021/12/20 06:10:55;;;;;;;9.27;1.90;;;5.40;90.40;;;;;;5014858;28;36846;-60
2021/12/20 06:13:22;;;;;;;12.25;1.77;;;5.30;90.40;;;;;;5014160;28;39707;-60
2021/12/20 06:15:49;;;;;;;11.05;2.53;;;5.30;90.50;;;;;;5013940;28;37986;-60
2021/12/20 06:18:18;;;;;;;9.60;1.85;;;5.30;90.50;;;;;;5014931;28;37510;-60
2021/12/20 06:20:46;;;;;;;16.00;2.20;;;5.30;90.50;;;;;;5014202;28;35330;-60
2021/12/20 06:23:13;;;;;;;9.82;1.90;;;5.20;90.50;;;;;;5014910;28;36867;-61
2021/12/20 06:25:41;;;;;;;11.13;2.08;;;5.20;90.50;;;;;;5014261;28;37588;-61
2021/12/20 06:28:08;;;;;;;10.00;2.25;;;5.10;90.40;;;;;;5015043;28;38350;-61
2021/12/20 06:30:36;;;;;;;12.23;1.65;;;5.10;90.50;;;;;;5014062;28;36534;-61
2021/12/20 06:33:03;;;;;;;7.50;1.80;;;5.10;90.60;;;;;;5016246;28;37437;-60
2021/12/20 06:35:32;;;;;;;12.70;2.17;;;5.00;90.60;;;;;;5014157;28;38136;-60
2021/12/20 06:38:01;;;;;;;11.18;2.15;;;5.00;90.60;;;;;;5016230;28;37684;-62
2021/12/20 06:40:31;;;;;;;12.70;1.75;;;5.00;90.70;;;;;;5014849;28;37893;-61
2021/12/20 06:42:58;;;;;;;6.93;1.85;;;5.00;90.70;;;;;;5015496;28;37664;-61
2021/12/20 06:45:29;;;;;;;12.05;2.20;;;5.00;90.70;;;;;;5013712;28;38025;-61
2021/12/20 06:47:57;;;;;;;12.15;2.15;;;4.90;90.80;;;;;;5014461;28;37489;-61
2021/12/20 06:50:24;;;;;;;8.45;1.80;;;4.90;90.70;;;;;;5015680;28;36175;-61
2021/12/20 06:52:53;;;;;;;11.55;2.17;;;4.80;90.70;;;;;;5015295;28;38172;-60
2021/12/20 06:55:20;;;;;;;8.15;1.73;;;4.80;90.70;;;;;;5013804;28;38302;-61
2021/12/20 06:57:47;;;;;;;11.82;1.73;;;4.80;90.70;;;;;;5016474;28;38324;-61
2021/12/20 07:00:16;;;;;;;12.63;1.80;;;4.70;90.70;;;;;;5015365;28;36526;-61
2021/12/20 07:02:43;;;;;;;8.63;1.85;;;4.70;90.80;;;;;;5014581;28;37072;-61
2021/12/20 07:05:11;;;;;;;10.55;1.90;;;4.70;90.80;;;;;;5015456;28;37836;-61
2021/12/20 07:07:39;;;;;;;5.97;1.25;;;4.60;90.80;;;;;;5015977;28;38065;-61
2021/12/20 07:10:09;;;;;;;10.25;1.65;;;4.60;90.80;;;;;;5015627;28;35146;-61
2021/12/20 07:12:38;;;;;;;11.43;1.80;;;4.60;90.80;;;;;;5015360;28;36905;-61
2021/12/20 07:15:09;;;;;;;8.30;1.83;;;4.50;90.80;;;;;;5015050;28;37813;-61
2021/12/20 07:17:37;;;;;;;12.43;2.05;;;4.50;90.90;;;;;;5015628;28;37840;-61
2021/12/20 07:20:05;;;;;;;11.07;2.20;;;4.50;90.90;;;;;;5015447;28;38863;-60
2021/12/20 07:22:33;;;;;;;14.85;1.90;;;4.50;91.00;;;;;;5015605;28;37805;-60
2021/12/20 07:25:01;;;;;;;10.65;1.60;;;4.40;91.00;;;;;;5014481;28;37675;-61
2021/12/20 07:27:31;;;;;;;11.30;3.65;;;4.40;91.00;;;;;;5013512;28;37604;-61
2021/12/20 07:29:59;;;;;;;12.85;2.08;;;4.30;91.20;;;;;;5013621;28;36630;-61
2021/12/20 07:32:26;;;;;;;12.60;2.08;;;4.30;91.20;;;;;;5014108;28;37514;-61
2021/12/20 07:34:53;;;;;;;13.43;2.13;;;4.30;91.20;;;;;;5014751;28;37667;-61
2021/12/20 07:37:21;;;;;;;8.30;2.03;;;4.30;91.20;;;;;;5015754;28;37580;-61
2021/12/20 07:39:49;;;;;;;10.88;1.73;;;4.40;91.30;;;;;;5014113;28;36948;-61
2021/12/20 07:42:16;;;;;;;9.27;1.70;;;4.40;91.40;;;;;;5014871;28;37246;-61
2021/12/20 07:44:45;;;;;;;6.15;1.55;;;4.40;91.30;;;;;;5014134;28;38445;-61
2021/12/20 07:47:13;;;;;;;10.50;1.90;;;4.30;91.30;;;;;;5014037;28;35930;-61
2021/12/20 07:49:40;;;;;;;6.47;1.80;;;4.30;91.30;;;;;;5014224;28;36526;-60
2021/12/20 07:52:08;;;;;;;8.88;1.88;;;4.20;91.30;;;;;;5015600;28;36143;-61
2021/12/20 07:54:35;;;;;;;11.75;3.05;;;4.20;91.20;;;;;;5015260;28;38018;-61
2021/12/20 07:57:03;;;;;;;10.05;2.72;;;4.20;91.30;;;;;;5011256;28;38557;-62
2021/12/20 07:59:30;;;;;;;14.02;2.85;;;4.10;91.50;;;;;;5011701;28;36431;-61
2021/12/20 08:01:59;;;;;;;10.88;3.30;;;4.10;91.60;;;;;;5012804;28;37716;-61
2021/12/20 08:04:27;;;;;;;7.97;1.75;;;4.20;92.10;;;;;;5014367;28;37905;-60
2021/12/20 08:06:54;;;;;;;7.60;1.65;;;4.20;92.10;;;;;;5016242;28;38416;-60
2021/12/20 08:09:22;;;;;;;7.45;1.42;;;4.20;92.00;;;;;;5017519;28;36467;-60
2021/12/20 08:11:51;;;;;;;7.28;1.38;;;4.20;92.10;;;;;;5018278;28;38143;-60
2021/12/20 08:14:18;;;;;;;9.00;1.30;;;4.30;92.30;;;;;;5018367;28;37830;-60
2021/12/20 08:16:48;;;;;;;6.20;1.40;;;4.40;92.20;;;;;;5018533;28;36929;-60
2021/12/20 08:19:17;;;;;;;8.88;1.40;;;4.40;92.10;;;;;;5017393;28;37158;-60
2021/12/20 08:21:45;;;;;;;13.65;2.10;;;4.50;92.10;;;;;;5017855;28;37322;-60
2021/12/20 08:24:12;;;;;;;9.60;2.10;;;4.60;92.00;;;;;;5016646;28;37278;-60
2021/12/20 08:26:39;;;;;;;21.90;2.40;;;4.80;91.90;;;;;;5017673;28;37432;-60
2021/12/20 08:29:08;;;;;;;16.63;2.60;;;4.90;91.70;;;;;;5017852;28;37810;-61
2021/12/20 08:31:36;;;;;;;9.63;2.08;;;5.10;91.60;;;;;;5018585;28;36248;-60
2021/12/20 08:34:04;;;;;;;11.43;2.30;;;5.30;91.60;;;;;;5018969;28;36310;-60
2021/12/20 08:36:33;;;;;;;10.32;2.63;;;5.40;91.40;;;;;;5016929;28;39322;-61
2021/12/20 08:39:01;;;;;;;12.02;2.53;;;5.60;91.20;;;;;;5015985;28;36469;-60
2021/12/20 08:41:28;;;;;;;8.98;1.95;;;5.70;91.00;;;;;;5017399;28;37491;-60
2021/12/20 08:43:55;;;;;;;11.68;2.20;;;5.70;90.90;;;;;;5017627;28;37726;-60
2021/12/20 08:46:23;;;;;;;8.68;2.25;;;5.80;90.90;;;;;;5016563;28;37516;-60
2021/12/20 08:48:51;;;;;;;15.45;2.22;;;5.80;90.70;;;;;;5017883;28;36561;-60
2021/12/20 08:51:19;;;;;;;11.52;2.08;;;5.90;90.80;;;;;;5015821;28;37704;-60
2021/12/20 08:53:48;;;;;;;9.63;2.35;;;6.00;90.80;;;;;;5018372;28;37666;-60
2021/12/20 08:56:15;;;;;;;11.35;2.30;;;6.20;90.50;;;;;;5016529;28;37474;-60
2021/12/20 08:58:42;;;;;;;12.02;2.30;;;6.30;90.40;;;;;;5017580;28;39902;-60
2021/12/20 09:01:10;;;;;;;16.67;3.42;;;6.50;90.20;;;;;;5015288;28;38724;-60
2021/12/20 09:03:37;;;;;;;15.07;2.85;;;6.60;90.10;;;;;;5016503;28;36428;-60
2021/12/20 09:06:05;;;;;;;22.77;2.53;;;6.60;89.80;;;;;;5016143;28;36897;-60
2021/12/20 09:08:34;;;;;;;17.60;2.40;;;6.60;90.00;;;;;;5016695;28;37369;-60
2021/12/20 09:11:02;;;;;;;13.18;2.45;;;6.70;90.20;;;;;;5016964;28;37677;-60
2021/12/20 09:13:30;;;;;;;15.63;2.90;;;6.80;89.80;;;;;;5018246;28;37786;-60
2021/12/20 09:15:59;;;;;;;18.27;3.78;;;7.20;89.00;;;;;;5016206;28;38311;-60
2021/12/20 09:18:27;;;;;;;19.33;3.72;;;7.50;87.70;;;;;;5018527;28;37254;-60
2021/12/20 09:20:55;;;;;;;22.55;3.28;;;7.80;87.40;;;;;;5016975;28;37403;-60
2021/12/20 09:23:26;;;;;;;12.18;2.53;;;7.90;86.20;;;;;;5017009;28;38444;-60
2021/12/20 09:25:53;;;;;;;14.73;3.03;;;8.00;86.00;;;;;;5016034;28;36274;-60
2021/12/20 09:28:22;;;;;;;15.57;3.13;;;8.10;85.90;;;;;;5017180;28;37549;-60
2021/12/20 09:30:49;;;;;;;16.05;3.00;;;8.00;85.80;;;;;;5017704;28;38131;-60
2021/12/20 09:33:17;;;;;;;11.77;3.03;;;7.90;85.90;;;;;;5017824;28;38315;-60
2021/12/20 09:35:44;;;;;;;14.43;3.15;;;8.10;85.80;;;;;;5016688;28;37202;-61
2021/12/20 09:38:16;;;;;;;16.17;3.47;;;8.20;85.40;;;;;;5017533;28;36758;-60
2021/12/20 09:41:02;;;;;;;17.50;3.33;;;8.20;85.00;;;;;;5015372;28;37020;-61
2021/12/20 09:43:31;;;;;;;16.40;2.78;;;8.20;84.90;;;;;;5015808;28;40322;-61
2021/12/20 09:45:58;;;;;;;23.02;4.00;;;8.30;85.20;;;;;;5016175;28;37663;-61
2021/12/20 09:48:26;;;;;;;18.77;3.08;;;8.50;85.00;;;;;;5016537;28;36491;-60
2021/12/20 09:50:53;;;;;;;20.55;3.65;;;8.70;84.30;;;;;;5010961;28;36245;-61
2021/12/20 09:53:21;;;;;;;19.95;3.13;;;9.00;83.80;;;;;;5014229;28;37832;-61
2021/12/20 09:55:50;;;;;;;15.35;3.03;;;9.10;83.20;;;;;;5012417;28;39193;-61
2021/12/20 09:58:20;;;;;;;20.35;3.15;;;9.30;82.80;;;;;;5014651;28;37405;-61
2021/12/20 10:00:49;;;;;;;19.77;3.88;;;9.30;83.10;;;;;;5015025;28;38049;-61
2021/12/20 10:03:20;;;;;;;15.27;3.15;;;9.40;83.20;;;;;;5015048;28;38634;-61
2021/12/20 10:05:47;;;;;;;23.70;3.45;;;9.50;83.10;;;;;;5014975;28;37546;-61
2021/12/20 10:08:19;;;;;;;20.88;3.55;;;9.70;82.70;;;;;;5016719;28;36592;-61
2021/12/20 10:10:49;;;;;;;24.13;3.78;;;9.80;81.90;;;;;;5015556;28;38628;-61
2021/12/20 10:13:24;;;;;;;25.17;4.00;;;9.90;82.10;;;;;;5016466;28;36444;-61
2021/12/20 10:15:54;;;;;;;19.85;3.45;;;9.90;81.10;;;;;;5013707;28;39046;-61
2021/12/20 10:18:21;;;;;;;26.70;4.68;;;9.90;81.80;;;;;;5016563;28;36205;-61
2021/12/20 10:20:51;;;;;;;23.08;4.65;;;9.80;81.60;;;;;;5014466;28;39475;-61
2021/12/20 10:23:20;;;;;;;20.80;4.72;;;9.70;81.00;;;;;;5014337;28;37590;-61
2021/12/20 10:25:52;;;;;;;23.88;4.75;;;9.60;80.40;;;;;;5013825;28;36393;-61
2021/12/20 10:28:23;;;;;;;25.65;5.00;;;9.40;80.80;;;;;;5015522;28;37045;-61
2021/12/20 10:30:56;;;;;;;26.52;5.65;;;9.30;81.50;;;;;;5016518;28;37139;-61
2021/12/20 10:33:25;;;;;;;27.33;4.95;;;9.20;82.00;;;;;;5016960;28;37718;-61
2021/12/20 10:35:54;;;;;;;23.45;4.95;;;9.20;82.20;;;;;;5015806;28;37490;-61
2021/12/20 10:38:25;;;;;;;21.40;4.75;;;9.20;82.10;;;;;;5016750;28;36058;-61
2021/12/20 10:40:55;;;;;;;26.77;5.85;;;9.20;82.30;;;;;;5015348;28;37598;-61
2021/12/20 10:43:25;;;;;;;29.48;4.55;;;9.10;82.50;;;;;;5015870;28;39598;-61
2021/12/20 10:45:55;;;;;;;28.80;4.95;;;9.10;82.90;;;;;;5014524;28;37916;-60
2021/12/20 10:48:30;;;;;;;24.13;5.20;;;8.90;83.10;;;;;;5015558;28;36477;-61
2021/12/20 10:50:58;;;;;;;27.52;6.07;;;8.90;83.60;;;;;;5015214;28;37871;-61
2021/12/20 10:53:27;;;;;;;24.00;4.32;;;8.80;83.80;;;;;;5016285;28;36516;-60
2021/12/20 10:55:57;;;;;;;28.50;3.88;;;8.80;83.30;;;;;;5015292;28;38322;-60
2021/12/20 10:58:32;;;;;;;23.35;4.20;;;8.80;83.10;;;;;;5016166;28;36530;-60
2021/12/20 11:01:35;;;;;;;24.70;4.03;;;8.80;83.40;;;;;;5015480;28;36130;-61
2021/12/20 11:04:06;;;;;;;23.02;4.90;;;8.70;83.10;;;;;;5014392;28;38953;-61
2021/12/20 11:07:01;;;;;;;28.58;4.53;;;8.70;83.70;;;;;;5015247;28;38844;-60
2021/12/20 11:09:30;;;;;;;31.33;4.93;;;8.60;83.50;;;;;;5016004;28;36153;-60
2021/12/20 11:11:59;;;;;;;19.25;4.10;;;8.60;84.20;;;;;;5014687;28;36291;-60
2021/12/20 11:14:29;;;;;;;24.13;5.00;;;8.60;84.60;;;;;;5014754;28;38706;-60
2021/12/20 11:17:00;;;;;;;21.67;4.90;;;8.60;84.80;;;;;;5015329;28;38246;-60
2021/12/20 11:19:30;;;;;;;36.13;5.25;;;8.60;84.80;;;;;;5013575;28;36348;-60
2021/12/20 11:22:01;;;;;;;20.42;3.80;;;8.60;85.00;;;;;;5012873;28;37783;-60
2021/12/20 11:24:31;;;;;;;27.00;4.80;;;8.50;85.40;;;;;;5014801;28;38402;-60
2021/12/20 11:27:00;;;;;;;20.13;4.13;;;8.50;85.60;;;;;;5014588;28;38256;-61
2021/12/20 11:29:27;;;;;;;25.00;4.47;;;8.40;85.70;;;;;;5015276;28;37466;-61
2021/12/20 11:31:57;;;;;;;27.02;5.00;;;8.40;85.90;;;;;;5014937;28;37446;-61
2021/12/20 11:34:25;;;;;;;25.10;4.45;;;8.50;85.70;;;;;;5016023;28;38395;-60
2021/12/20 11:36:56;;;;;;;29.33;4.93;;;8.50;85.60;;;;;;5015167;28;38651;-60
2021/12/20 11:39:24;;;;;;;20.60;5.05;;;8.60;85.40;;;;;;5017462;28;36695;-60
2021/12/20 11:41:52;;;;;;;25.40;5.43;;;8.70;85.40;;;;;;5019196;28;38376;-60
2021/12/20 11:44:21;;;;;;;23.75;4.35;;;8.90;84.30;;;;;;5018117;28;40225;-60
2021/12/20 11:47:07;;;;;;;24.95;4.72;;;9.10;83.30;;;;;;5018985;28;37483;-60
2021/12/20 11:49:37;;;;;;;26.20;4.50;;;9.20;81.90;;;;;;5016152;28;36677;-60
2021/12/20 11:52:09;;;;;;;24.67;4.10;;;9.20;81.70;;;;;;5016576;28;38299;-60
2021/12/20 11:54:42;;;;;;;23.50;4.20;;;9.30;81.20;;;;;;5019110;28;37658;-61
2021/12/20 11:57:33;;;;;;;;;;;9.40;79.80;;;;;;5019721;28;37451;-60
2021/12/20 12:00:05;;;;;;;19.55;4.45;;;9.30;78.50;;;;;;5018452;28;36518;-60
2021/12/20 12:02:35;;;;;;;22.40;3.75;;;9.20;80.90;;;;;;5018208;28;39344;-60
2021/12/20 12:05:07;;;;;;;19.33;3.53;;;9.20;80.50;;;;;;5017699;28;38165;-61
2021/12/20 12:07:37;;;;;;;19.37;4.20;;;9.20;80.90;;;;;;5017138;28;38689;-61
2021/12/20 12:10:09;;;;;;;19.20;3.67;;;9.20;80.00;;;;;;5018113;28;37934;-60
2021/12/20 12:12:41;;;;;;;19.42;3.33;;;9.10;80.00;;;;;;5016207;28;37471;-61
2021/12/20 12:15:13;;;;;;;17.27;3.42;;;9.10;79.40;;;;;;5015697;28;36693;-61
2021/12/20 12:17:52;;;;;;;18.77;2.92;;;9.00;78.90;;;;;;5015531;28;37949;-60
2021/12/20 12:20:39;;;;;;;17.50;3.45;;;9.20;78.30;;;;;;5015956;28;36027;-61
2021/12/20 12:23:12;;;;;;;19.65;4.20;;;8.90;77.80;;;;;;5004518;28;35384;-60
2021/12/20 12:25:41;;;;;;;18.35;4.15;;;8.90;77.60;;;;;;5017349;28;37815;-60
2021/12/20 12:28:09;;;;;;;13.90;3.33;;;8.90;76.80;;;;;;5015140;28;38725;-60
2021/12/20 12:30:37;;;;;;;19.80;3.13;;;8.80;76.20;;;;;;5015800;28;37015;-61
2021/12/20 12:33:38;;;;;;;16.60;3.30;;;8.80;75.60;;;;;;5016084;28;37580;-60
2021/12/20 12:36:26;;;;;;;16.45;2.80;;;8.80;75.00;;;;;;5018187;28;36402;-60
2021/12/20 12:38:59;;;;;;;18.73;3.45;;;8.80;77.10;;;;;;5017195;28;37304;-60
2021/12/20 12:41:29;;;;;;;16.60;3.45;;;8.70;77.60;;;;;;5018820;28;36116;-60
2021/12/20 12:43:59;;;;;;;17.15;3.10;;;8.70;78.00;;;;;;5017009;28;37635;-60
2021/12/20 12:47:08;;;;;;;12.45;2.40;;;8.70;78.00;;;;;;5017455;28;36430;-60
2021/12/20 12:49:57;;;;;;;8.38;1.85;;;8.60;74.40;;;;;;4958273;28;36067;-60
2021/12/20 12:52:40;;;;;;;7.05;1.73;;;8.60;74.00;;;;;;4955968;28;37001;-60
2021/12/20 12:55:24;;;;;;;8.35;1.75;;;8.50;73.00;;;;;;5002962;28;37760;-60
2021/12/20 12:57:51;;;;;;;11.13;1.65;;;8.50;72.60;;;;;;5015940;28;36477;-61
2021/12/20 13:00:26;;;;;;;8.95;1.58;;;8.50;71.20;;;;;;5017272;28;38227;-60
2021/12/20 13:03:05;;;;;;;7.70;1.73;;;8.50;70.40;;;;;;5017249;28;37281;-60
2021/12/20 13:05:32;;;;;;;12.43;1.80;;;8.50;69.50;;;;;;5017145;28;38067;-60
2021/12/20 13:08:02;;;;;;;10.88;1.88;;;8.50;70.00;;;;;;5016457;28;38258;-60
2021/12/20 13:10:37;;;;;;;8.10;1.38;;;8.40;69.20;;;;;;5017091;28;37374;-60